WAAA/UPG METAR and TAF weather

Enter ICAO airport designator
Station Type Date Time Source
WAAA METAR 2022/11/26 09:00 UTC NOAA

WAAA 260900Z 29010KT 9000 VCSH FEW018CB SCT019 28/22 Q1008 NOSIG RMK CB IN APCH


Station Type Date Time Source
WAAA Decoded METAR 2022/11/26 09:00 UTC NOAA

Ujung Pandang / Hasanuddin, Indonesia (WAAA) 05-04S 119-33E 14M
Nov 26, 2022 - 04:00 AM EST / 2022.11.26 0900 UTC
Wind: from the WNW (290 degrees) at 12 MPH (10 KT):0
Visibility: 5 mile(s):0
Sky conditions: partly cloudy
Weather: showers in the vicinity; Cumulonimbus clouds observed
Temperature: 82 F (28 C)
Dew Point: 71 F (22 C)
Relative Humidity: 69%
Pressure (altimeter): 29.77 in. Hg (1008 hPa)
ob: WAAA 260900Z 29010KT 9000 VCSH FEW018CB SCT019 28/22 Q1008 NOSIG RMK CB IN APCH
cycle: 9

Station Type Date Time Source
WAAA TAF 2022/11/26 06:48 UTC NOAA

TAF TAF WAAA 260500Z 2606/2712 31010KT 9999 SCT019
BECMG 2610/2612 10004KT

Example: see airport list